createdAt,value
2019-02-09T00:01:44.239Z,3.80
2019-02-09T00:04:13.939Z,3.70
2019-02-09T00:06:44.703Z,3.70
2019-02-09T00:09:14.410Z,3.80
2019-02-09T00:11:44.149Z,3.70
2019-02-09T00:14:13.828Z,3.70
2019-02-09T00:16:43.518Z,3.60
2019-02-09T00:19:13.272Z,3.50
2019-02-09T00:21:42.933Z,3.50
2019-02-09T00:24:12.611Z,3.60
2019-02-09T00:26:42.309Z,3.60
2019-02-09T00:29:12.060Z,3.60
2019-02-09T00:31:41.833Z,3.50
2019-02-09T00:34:11.494Z,3.40
2019-02-09T00:36:41.180Z,3.30
2019-02-09T00:39:10.906Z,3.30
2019-02-09T00:41:40.609Z,3.20
2019-02-09T00:44:10.337Z,3.30
2019-02-09T00:46:40.787Z,3.40
2019-02-09T00:49:10.528Z,3.40
2019-02-09T00:51:40.285Z,3.50
2019-02-09T00:54:11.104Z,3.60
2019-02-09T00:56:40.851Z,3.50
2019-02-09T00:59:10.628Z,3.50
2019-02-09T01:01:40.307Z,3.60
2019-02-09T01:04:09.972Z,3.60
2019-02-09T01:06:39.651Z,3.50
2019-02-09T01:09:11.431Z,3.50
2019-02-09T01:11:41.188Z,3.40
2019-02-09T01:14:10.942Z,3.40
2019-02-09T01:16:40.699Z,3.40
2019-02-09T01:19:10.460Z,3.30
2019-02-09T01:21:40.195Z,3.30
2019-02-09T01:24:09.880Z,3.30
2019-02-09T01:26:40.064Z,3.30
2019-02-09T01:29:09.816Z,3.40
2019-02-09T01:31:39.547Z,3.40
2019-02-09T01:34:09.211Z,3.40
2019-02-09T01:36:38.972Z,3.30
2019-02-09T01:39:08.637Z,3.40
2019-02-09T01:41:38.360Z,3.30
2019-02-09T01:44:08.103Z,3.30
2019-02-09T01:46:37.878Z,3.30
2019-02-09T01:49:07.545Z,3.40
2019-02-09T01:51:37.235Z,3.40
2019-02-09T01:54:07.009Z,3.40
2019-02-09T01:56:36.747Z,3.30
2019-02-09T01:59:06.428Z,3.20
2019-02-09T02:01:36.123Z,3.30
2019-02-09T02:04:05.944Z,3.30
2019-02-09T02:06:35.606Z,3.40
2019-02-09T02:09:06.599Z,3.50
2019-02-09T02:11:36.293Z,3.50
2019-02-09T02:14:06.068Z,3.60
2019-02-09T02:16:36.783Z,3.60
2019-02-09T02:19:06.464Z,3.70
2019-02-09T02:21:36.199Z,3.70
2019-02-09T02:24:05.887Z,3.70
2019-02-09T02:26:35.621Z,3.70
2019-02-09T02:29:05.375Z,3.70
2019-02-09T02:31:35.125Z,3.80
2019-02-09T02:34:04.880Z,3.80
2019-02-09T02:36:35.741Z,3.80
2019-02-09T02:39:08.703Z,3.90
2019-02-09T02:41:51.275Z,3.80
2019-02-09T02:44:21.016Z,3.80
2019-02-09T02:46:50.706Z,3.90
2019-02-09T02:49:20.578Z,3.90
2019-02-09T02:51:50.318Z,3.90
2019-02-09T02:54:20.118Z,4.00
2019-02-09T02:56:49.865Z,4.00
2019-02-09T02:59:19.622Z,4.00
2019-02-09T03:01:49.388Z,4.10
2019-02-09T03:04:19.120Z,4.10
2019-02-09T03:06:49.860Z,4.10
2019-02-09T03:09:19.596Z,4.10
2019-02-09T03:11:49.274Z,4.10
2019-02-09T03:14:18.953Z,4.20
2019-02-09T03:16:48.713Z,4.20
2019-02-09T03:19:19.256Z,4.20
2019-02-09T03:21:49.003Z,4.20
2019-02-09T03:24:18.696Z,4.10
2019-02-09T03:26:48.382Z,4.10
2019-02-09T03:29:18.209Z,4.10
2019-02-09T03:31:47.910Z,4.10
2019-02-09T03:34:17.653Z,4.10
2019-02-09T03:36:47.444Z,4.20
2019-02-09T03:39:17.173Z,4.10
2019-02-09T03:41:46.859Z,4.10
2019-02-09T03:44:16.551Z,4.10
2019-02-09T03:46:46.293Z,4.10
2019-02-09T03:49:16.061Z,4.20
2019-02-09T03:51:45.820Z,4.10
2019-02-09T03:54:15.609Z,4.10
2019-02-09T03:56:45.360Z,4.10
2019-02-09T03:59:15.046Z,4.00
2019-02-09T04:01:44.810Z,4.00
2019-02-09T04:04:14.567Z,4.00
2019-02-09T04:06:44.256Z,4.10
2019-02-09T04:09:14.008Z,4.00
2019-02-09T04:11:43.775Z,4.00
2019-02-09T04:14:13.440Z,4.10
2019-02-09T04:16:43.235Z,4.10
2019-02-09T04:19:12.987Z,4.20
2019-02-09T04:21:44.381Z,4.20
2019-02-09T04:24:14.034Z,4.10
2019-02-09T04:26:43.737Z,4.20
2019-02-09T04:29:13.559Z,4.20
2019-02-09T04:31:43.369Z,4.20
2019-02-09T04:34:13.127Z,4.20
2019-02-09T04:36:42.854Z,4.20
2019-02-09T04:39:12.543Z,4.20
2019-02-09T04:41:42.225Z,4.30
2019-02-09T04:44:12.792Z,4.20
2019-02-09T04:46:42.527Z,4.20
2019-02-09T04:49:12.282Z,4.10
2019-02-09T04:51:42.018Z,4.10
2019-02-09T04:54:11.772Z,4.10
2019-02-09T04:56:41.541Z,4.20
2019-02-09T04:59:11.249Z,4.20
2019-02-09T05:01:40.923Z,4.30
2019-02-09T05:04:10.587Z,4.30
2019-02-09T05:06:40.284Z,4.40
2019-02-09T05:09:10.011Z,4.40
2019-02-09T05:11:39.704Z,4.40
2019-02-09T05:14:09.370Z,4.40
2019-02-09T05:16:39.142Z,4.40
2019-02-09T05:19:08.898Z,4.50
2019-02-09T05:21:38.547Z,4.60
2019-02-09T05:24:08.227Z,4.50
2019-02-09T05:26:37.886Z,4.50
2019-02-09T05:29:07.567Z,4.50
2019-02-09T05:31:40.510Z,4.50
2019-02-09T05:34:10.260Z,4.50
2019-02-09T05:36:39.934Z,4.60
2019-02-09T05:39:12.269Z,4.60
2019-02-09T05:41:42.046Z,4.70
2019-02-09T05:44:11.767Z,4.60
2019-02-09T05:46:41.458Z,4.70
2019-02-09T05:49:11.136Z,4.60
2019-02-09T05:51:40.910Z,4.70
2019-02-09T05:54:10.637Z,4.80
2019-02-09T05:56:40.312Z,4.70
2019-02-09T05:59:12.857Z,4.70
2019-02-09T06:01:42.628Z,4.60
2019-02-09T06:04:13.259Z,4.50
2019-02-09T06:06:42.952Z,4.50
2019-02-09T06:09:12.680Z,4.60
2019-02-09T06:11:42.392Z,4.60
2019-02-09T06:14:13.286Z,4.50
2019-02-09T06:16:43.049Z,4.50
2019-02-09T06:19:12.728Z,4.50
2019-02-09T06:21:43.554Z,4.50
2019-02-09T06:24:13.331Z,4.50
2019-02-09T06:26:43.090Z,4.50
2019-02-09T06:29:12.845Z,4.60
2019-02-09T06:31:42.586Z,4.70
2019-02-09T06:34:12.244Z,4.80
2019-02-09T06:36:42.012Z,5.00
2019-02-09T06:39:11.740Z,5.10
2019-02-09T06:41:41.492Z,5.20
2019-02-09T06:44:11.274Z,5.30
2019-02-09T06:46:40.994Z,5.30
2019-02-09T06:49:10.678Z,5.30
2019-02-09T06:51:40.336Z,5.30
2019-02-09T06:54:10.036Z,5.20
2019-02-09T06:56:39.782Z,5.20
2019-02-09T06:59:09.541Z,5.30
2019-02-09T07:01:39.310Z,5.30
2019-02-09T07:04:08.977Z,5.30
2019-02-09T07:06:38.732Z,5.30
2019-02-09T07:09:08.492Z,5.30
2019-02-09T07:11:38.227Z,5.40
2019-02-09T07:14:07.975Z,5.40
2019-02-09T07:16:37.637Z,5.40
2019-02-09T07:19:07.298Z,5.50
2019-02-09T07:21:36.960Z,5.60
2019-02-09T07:24:06.631Z,5.60
2019-02-09T07:26:36.310Z,5.70
2019-02-09T07:29:06.061Z,5.70
2019-02-09T07:31:35.737Z,5.80
2019-02-09T07:34:05.417Z,5.90
2019-02-09T07:36:35.195Z,6.20
2019-02-09T07:39:07.771Z,6.50
2019-02-09T07:41:38.106Z,6.70
2019-02-09T07:44:07.825Z,6.90
2019-02-09T07:46:37.670Z,6.90
2019-02-09T07:49:07.769Z,6.90
2019-02-09T07:51:38.745Z,7.10
2019-02-09T07:54:08.464Z,7.20
2019-02-09T07:56:39.276Z,7.20
2019-02-09T07:59:09.041Z,7.30
2019-02-09T08:01:38.898Z,7.30
2019-02-09T08:04:10.128Z,7.20
2019-02-09T08:06:41.329Z,7.40
2019-02-09T08:09:12.026Z,7.70
2019-02-09T08:11:44.004Z,8.30
2019-02-09T08:14:13.799Z,8.80
2019-02-09T08:16:43.460Z,9.30
2019-02-09T08:19:13.343Z,9.80
2019-02-09T08:21:43.234Z,10.30
2019-02-09T08:24:12.993Z,10.70
2019-02-09T08:26:43.150Z,11.10
2019-02-09T08:29:13.008Z,11.40
2019-02-09T08:31:42.759Z,11.30
2019-02-09T08:34:12.490Z,10.90
2019-02-09T08:36:42.928Z,10.70
2019-02-09T08:39:12.582Z,10.50
2019-02-09T08:41:42.379Z,10.10
2019-02-09T08:44:12.112Z,9.70
2019-02-09T08:46:41.853Z,9.50
2019-02-09T08:49:11.550Z,9.40
2019-02-09T08:51:41.273Z,9.20
2019-02-09T08:54:10.939Z,9.00
2019-02-09T08:56:40.639Z,8.90
2019-02-09T08:59:10.375Z,8.70
2019-02-09T09:01:41.127Z,8.60
2019-02-09T09:04:10.968Z,8.40
2019-02-09T09:06:40.785Z,8.30
2019-02-09T09:09:10.526Z,8.20
2019-02-09T09:11:40.280Z,8.10
2019-02-09T09:14:10.031Z,8.10
2019-02-09T09:16:39.765Z,8.10
2019-02-09T09:19:09.513Z,8.10
2019-02-09T09:21:39.195Z,8.20
2019-02-09T09:24:08.873Z,8.30
2019-02-09T09:26:38.559Z,8.20
2019-02-09T09:29:08.336Z,8.30
2019-02-09T09:31:38.109Z,8.20
2019-02-09T09:34:08.828Z,8.10
2019-02-09T09:36:38.515Z,8.10
2019-02-09T09:39:08.956Z,8.10
2019-02-09T09:41:39.591Z,8.20
2019-02-09T09:44:10.493Z,8.30
2019-02-09T09:46:40.347Z,8.40
2019-02-09T09:49:10.760Z,9.20
2019-02-09T09:51:42.013Z,10.60
2019-02-09T09:54:13.392Z,12.70
2019-02-09T09:56:43.088Z,15.50
2019-02-09T09:59:13.833Z,17.70
2019-02-09T10:01:43.491Z,19.60
2019-02-09T10:04:14.941Z,21.10
2019-02-09T10:06:45.116Z,21.60
2019-02-09T10:09:14.993Z,22.60
2019-02-09T10:11:44.671Z,23.00
2019-02-09T10:14:14.392Z,23.50
2019-02-09T10:16:45.079Z,24.20
2019-02-09T10:19:15.287Z,24.30
2019-02-09T10:21:45.303Z,23.10
2019-02-09T10:24:15.100Z,22.10
2019-02-09T10:26:45.187Z,22.20
2019-02-09T10:29:15.851Z,22.60
2019-02-09T10:31:46.278Z,21.90
2019-02-09T10:34:17.218Z,20.00
2019-02-09T10:36:47.027Z,19.00
2019-02-09T10:39:17.456Z,18.60
2019-02-09T10:41:47.399Z,18.10
2019-02-09T10:44:18.191Z,17.60
2019-02-09T10:46:48.137Z,16.70
2019-02-09T10:49:17.883Z,16.50
2019-02-09T10:51:47.573Z,16.20
2019-02-09T10:54:17.331Z,16.50
2019-02-09T10:56:47.043Z,17.20
2019-02-09T10:59:16.721Z,17.60
2019-02-09T11:01:47.643Z,18.10
2019-02-09T11:04:19.641Z,18.20
2019-02-09T11:06:49.324Z,18.70
2019-02-09T11:09:21.183Z,19.30
2019-02-09T11:11:50.965Z,18.90
2019-02-09T11:14:20.680Z,18.00
2019-02-09T11:16:50.422Z,16.70
2019-02-09T11:19:21.176Z,15.40
2019-02-09T11:21:50.946Z,14.70
2019-02-09T11:24:23.167Z,13.90
2019-02-09T11:26:53.049Z,13.40
2019-02-09T11:29:22.724Z,13.10
2019-02-09T11:31:52.432Z,12.80
2019-02-09T11:34:22.159Z,12.50
2019-02-09T11:36:51.870Z,12.40
2019-02-09T11:39:21.662Z,12.20
2019-02-09T11:41:51.389Z,12.00
2019-02-09T11:44:21.141Z,12.00
2019-02-09T11:46:50.812Z,11.90
2019-02-09T11:49:20.620Z,11.80
2019-02-09T11:51:50.333Z,11.70
2019-02-09T11:54:20.080Z,11.80
2019-02-09T11:56:49.775Z,11.80
2019-02-09T11:59:21.196Z,11.80
2019-02-09T12:01:52.004Z,11.90
2019-02-09T12:04:21.872Z,11.90
2019-02-09T12:06:51.643Z,11.90
2019-02-09T12:09:21.412Z,11.90
2019-02-09T12:11:51.180Z,11.90
2019-02-09T12:14:20.942Z,11.90
2019-02-09T12:16:50.626Z,11.80
2019-02-09T12:19:20.370Z,11.70
2019-02-09T12:21:50.043Z,11.80
2019-02-09T12:24:19.792Z,11.90
2019-02-09T12:26:50.540Z,12.00
2019-02-09T12:29:20.319Z,12.00
2019-02-09T12:31:50.058Z,11.90
2019-02-09T12:34:19.824Z,11.80
2019-02-09T12:36:49.561Z,11.80
2019-02-09T12:39:19.258Z,11.70
2019-02-09T12:41:49.009Z,11.70
2019-02-09T12:44:18.739Z,11.60
2019-02-09T12:46:48.434Z,11.60
2019-02-09T12:49:18.168Z,11.50
2019-02-09T12:51:47.928Z,11.40
2019-02-09T12:54:17.665Z,11.40
2019-02-09T12:56:47.439Z,11.50
2019-02-09T12:59:17.146Z,11.50
2019-02-09T13:01:46.896Z,11.50
2019-02-09T13:04:16.592Z,11.40
2019-02-09T13:06:46.314Z,11.40
2019-02-09T13:09:16.023Z,11.40
2019-02-09T13:11:45.771Z,11.30
2019-02-09T13:14:15.465Z,11.30
2019-02-09T13:16:45.130Z,11.20
2019-02-09T13:19:14.894Z,11.20
2019-02-09T13:21:44.654Z,11.10
2019-02-09T13:24:14.333Z,11.20
2019-02-09T13:26:44.022Z,11.20
2019-02-09T13:29:13.683Z,11.10
2019-02-09T13:31:43.390Z,11.10
2019-02-09T13:34:13.183Z,11.10
2019-02-09T13:36:42.909Z,11.10
2019-02-09T13:39:12.651Z,10.90
2019-02-09T13:41:42.435Z,10.80
2019-02-09T13:44:12.202Z,10.80
2019-02-09T13:46:42.010Z,10.80
2019-02-09T13:49:12.849Z,10.80
2019-02-09T13:51:42.610Z,10.90
2019-02-09T13:54:12.298Z,10.90
2019-02-09T13:56:42.128Z,10.90
2019-02-09T13:59:12.313Z,10.90
2019-02-09T14:01:42.063Z,10.80
2019-02-09T14:04:11.776Z,10.70
2019-02-09T14:06:41.471Z,10.80
2019-02-09T14:09:14.848Z,10.70
2019-02-09T14:11:44.570Z,10.80
2019-02-09T14:14:14.548Z,10.70
2019-02-09T14:16:44.381Z,10.70
2019-02-09T14:19:14.069Z,10.70
2019-02-09T14:21:43.842Z,10.80
2019-02-09T14:24:13.592Z,10.80
2019-02-09T14:26:43.282Z,10.90
2019-02-09T14:29:12.959Z,10.80
2019-02-09T14:31:42.728Z,10.90
2019-02-09T14:34:12.489Z,10.90
2019-02-09T14:36:42.231Z,10.90
2019-02-09T14:39:11.915Z,10.90
2019-02-09T14:41:41.610Z,10.90
2019-02-09T14:44:11.372Z,10.80
2019-02-09T14:46:41.088Z,10.80
2019-02-09T14:49:10.838Z,10.80
2019-02-09T14:51:40.538Z,10.80
2019-02-09T14:54:10.311Z,10.80
2019-02-09T14:56:39.977Z,10.80
2019-02-09T14:59:09.652Z,10.70
2019-02-09T15:01:39.308Z,10.60
2019-02-09T15:04:09.001Z,10.60
2019-02-09T15:06:38.688Z,10.50
2019-02-09T15:09:08.824Z,10.50
2019-02-09T15:11:38.561Z,10.40
2019-02-09T15:14:08.303Z,10.40
2019-02-09T15:16:38.064Z,10.40
2019-02-09T15:19:07.762Z,10.30
2019-02-09T15:21:37.512Z,10.30
2019-02-09T15:24:07.178Z,10.30
2019-02-09T15:26:36.950Z,10.30
2019-02-09T15:29:06.712Z,10.40
2019-02-09T15:31:36.512Z,10.30
2019-02-09T15:34:10.270Z,10.30
2019-02-09T15:36:37.718Z,10.20
2019-02-09T15:39:08.328Z,10.10
2019-02-09T15:41:38.086Z,10.10
2019-02-09T15:44:07.851Z,10.10
2019-02-09T15:46:37.601Z,10.00
2019-02-09T15:49:07.335Z,9.90
2019-02-09T15:51:37.016Z,9.80
2019-02-09T15:54:06.771Z,9.80
2019-02-09T15:56:36.525Z,9.70
2019-02-09T15:59:06.258Z,9.60
2019-02-09T16:01:36.011Z,9.60
2019-02-09T16:04:05.730Z,9.60
2019-02-09T16:06:35.563Z,9.50
2019-02-09T16:09:07.013Z,9.50
2019-02-09T16:11:36.739Z,9.50
2019-02-09T16:14:06.472Z,9.30
2019-02-09T16:16:36.128Z,9.30
2019-02-09T16:19:05.794Z,9.20
2019-02-09T16:21:35.523Z,9.20
2019-02-09T16:24:05.278Z,9.10
2019-02-09T16:26:34.942Z,9.10
2019-02-09T16:29:04.703Z,9.10
2019-02-09T16:31:35.969Z,9.10
2019-02-09T16:34:05.943Z,9.10
2019-02-09T16:36:35.684Z,9.10
2019-02-09T16:39:07.560Z,9.00
2019-02-09T16:41:38.309Z,9.10
2019-02-09T16:44:08.116Z,9.10
2019-02-09T16:46:37.784Z,9.10
2019-02-09T16:49:07.467Z,9.10
2019-02-09T16:51:37.220Z,9.10
2019-02-09T16:54:06.901Z,9.10
2019-02-09T16:56:36.572Z,9.10
2019-02-09T16:59:06.340Z,9.10
2019-02-09T17:01:36.075Z,9.10
2019-02-09T17:04:05.909Z,9.10
2019-02-09T17:06:35.620Z,9.10
2019-02-09T17:09:07.424Z,9.10
2019-02-09T17:11:37.164Z,9.10
2019-02-09T17:14:06.854Z,9.10
2019-02-09T17:16:36.587Z,9.10
2019-02-09T17:19:06.272Z,9.20
2019-02-09T17:21:36.035Z,9.40
2019-02-09T17:24:05.775Z,9.30
2019-02-09T17:26:35.532Z,9.20
2019-02-09T17:29:05.332Z,9.30
2019-02-09T17:31:37.716Z,9.20
2019-02-09T17:34:07.457Z,9.10
2019-02-09T17:36:37.155Z,9.10
2019-02-09T17:39:06.884Z,9.10
2019-02-09T17:41:37.750Z,9.10
2019-02-09T17:44:08.624Z,9.00
2019-02-09T17:46:38.766Z,8.90
2019-02-09T17:49:08.631Z,8.90
2019-02-09T17:51:38.481Z,9.00
2019-02-09T17:54:08.236Z,9.00
2019-02-09T17:56:37.983Z,8.80
2019-02-09T17:59:07.720Z,8.80
2019-02-09T18:01:37.463Z,8.70
2019-02-09T18:04:08.376Z,8.70
2019-02-09T18:06:38.177Z,8.70
2019-02-09T18:09:08.087Z,8.60
2019-02-09T18:11:37.760Z,8.60
2019-02-09T18:14:07.425Z,8.50
2019-02-09T18:16:37.180Z,8.50
2019-02-09T18:19:06.997Z,8.50
2019-02-09T18:21:36.685Z,8.40
2019-02-09T18:24:06.381Z,8.30
2019-02-09T18:26:36.079Z,8.30
2019-02-09T18:29:05.777Z,8.20
2019-02-09T18:31:37.490Z,8.30
2019-02-09T18:34:06.908Z,8.20
2019-02-09T18:36:36.724Z,8.10
2019-02-09T18:39:09.732Z,8.00
2019-02-09T18:41:41.062Z,8.00
2019-02-09T18:44:10.821Z,8.00
2019-02-09T18:46:41.168Z,7.90
2019-02-09T18:49:11.004Z,8.00
2019-02-09T18:51:41.137Z,8.00
2019-02-09T18:54:11.041Z,8.00
2019-02-09T18:56:40.826Z,8.00
2019-02-09T18:59:10.520Z,8.00
2019-02-09T19:01:42.202Z,8.00
2019-02-09T19:04:11.774Z,7.90
2019-02-09T19:06:41.476Z,8.00
2019-02-09T19:09:11.500Z,8.00
2019-02-09T19:11:41.325Z,8.00
2019-02-09T19:14:11.259Z,8.00
2019-02-09T19:16:41.261Z,8.00
2019-02-09T19:19:12.161Z,8.10
2019-02-09T19:21:47.460Z,8.00
2019-02-09T19:24:17.223Z,8.00
2019-02-09T19:26:46.991Z,8.00
2019-02-09T19:29:16.745Z,7.90
2019-02-09T19:31:46.443Z,7.90
2019-02-09T19:34:16.117Z,7.90
2019-02-09T19:36:45.810Z,7.90
2019-02-09T19:39:15.552Z,7.80
2019-02-09T19:41:45.330Z,7.90
2019-02-09T19:44:15.151Z,7.80
2019-02-09T19:46:45.012Z,7.80
2019-02-09T19:49:16.253Z,7.80
2019-02-09T19:51:48.256Z,7.80
2019-02-09T19:54:18.896Z,7.80
2019-02-09T19:56:49.099Z,7.80
2019-02-09T19:59:20.315Z,7.80
2019-02-09T20:01:50.896Z,7.80
2019-02-09T20:04:21.946Z,7.80
2019-02-09T20:06:54.385Z,7.80
2019-02-09T20:09:24.631Z,7.80
2019-02-09T20:11:56.495Z,7.70
2019-02-09T20:14:26.825Z,7.70
2019-02-09T20:16:57.255Z,7.70
2019-02-09T20:19:28.295Z,7.60
2019-02-09T20:21:59.887Z,7.50
2019-02-09T20:24:30.582Z,7.50
2019-02-09T20:27:00.465Z,7.50
2019-02-09T20:29:32.800Z,7.60
2019-02-09T20:32:04.124Z,7.60
2019-02-09T20:34:35.336Z,7.50
2019-02-09T20:37:05.877Z,7.50
2019-02-09T20:39:36.677Z,7.50
2019-02-09T20:42:06.963Z,7.50
2019-02-09T20:44:37.571Z,7.40
2019-02-09T20:47:07.437Z,7.40
2019-02-09T20:49:37.118Z,7.40
2019-02-09T20:52:07.156Z,7.30
2019-02-09T20:54:37.082Z,7.20
2019-02-09T20:57:08.353Z,7.10
2019-02-09T20:59:38.287Z,7.10
2019-02-09T21:02:07.997Z,7.00
2019-02-09T21:04:38.963Z,7.00
2019-02-09T21:07:09.520Z,7.00
2019-02-09T21:09:40.690Z,7.00
2019-02-09T21:12:11.477Z,7.00
2019-02-09T21:14:44.202Z,7.00
2019-02-09T21:17:14.122Z,7.00
2019-02-09T21:19:44.263Z,6.90
2019-02-09T21:22:14.433Z,6.90
2019-02-09T21:24:44.584Z,6.90
2019-02-09T21:27:15.513Z,6.80
2019-02-09T21:29:45.660Z,6.80
2019-02-09T21:32:19.754Z,6.80
2019-02-09T21:34:49.481Z,6.80
2019-02-09T21:37:20.220Z,6.70
2019-02-09T21:39:50.662Z,6.70
2019-02-09T21:42:20.968Z,6.70
2019-02-09T21:44:50.847Z,6.70
2019-02-09T21:47:21.224Z,6.60
2019-02-09T21:49:52.717Z,6.50
2019-02-09T21:52:23.715Z,6.40
2019-02-09T21:54:55.415Z,6.40
2019-02-09T21:57:26.176Z,6.40
2019-02-09T21:59:55.935Z,6.40
2019-02-09T22:02:26.530Z,6.30
2019-02-09T22:04:56.293Z,6.20
2019-02-09T22:07:26.072Z,6.20
2019-02-09T22:09:55.788Z,6.10
2019-02-09T22:12:27.303Z,6.10
2019-02-09T22:14:58.558Z,6.20
2019-02-09T22:17:29.054Z,6.10
2019-02-09T22:20:10.168Z,6.10
2019-02-09T22:22:40.424Z,6.10
2019-02-09T22:25:20.448Z,6.00
2019-02-09T22:27:50.654Z,5.90
2019-02-09T22:30:26.894Z,5.80
2019-02-09T22:32:56.926Z,5.80
2019-02-09T22:35:27.553Z,5.80
2019-02-09T22:37:58.935Z,5.90
2019-02-09T22:40:33.769Z,5.90
2019-02-09T22:43:06.740Z,5.80
2019-02-09T22:45:36.559Z,5.80
2019-02-09T22:48:07.728Z,5.80
2019-02-09T22:50:39.908Z,5.70
2019-02-09T22:55:51.611Z,5.80
2019-02-09T22:58:21.340Z,6.00
2019-02-09T23:01:21.917Z,5.90
2019-02-09T23:03:57.758Z,5.80
2019-02-09T23:06:42.625Z,5.80
2019-02-09T23:09:14.878Z,5.70
2019-02-09T23:11:44.642Z,5.70
2019-02-09T23:14:14.370Z,5.70
2019-02-09T23:16:44.063Z,5.70
2019-02-09T23:19:13.805Z,5.60
2019-02-09T23:21:44.550Z,5.50
2019-02-09T23:24:14.275Z,5.60
2019-02-09T23:26:44.044Z,5.60
2019-02-09T23:29:13.785Z,5.50
2019-02-09T23:31:43.511Z,5.50
2019-02-09T23:34:13.243Z,5.50
2019-02-09T23:36:42.924Z,5.70
2019-02-09T23:39:12.590Z,5.70
2019-02-09T23:41:42.263Z,5.60
2019-02-09T23:44:12.011Z,5.60
2019-02-09T23:46:41.664Z,5.70
2019-02-09T23:49:11.346Z,5.60
2019-02-09T23:51:41.025Z,5.60
2019-02-09T23:54:10.820Z,5.60
2019-02-09T23:56:40.496Z,5.80
2019-02-09T23:59:10.178Z,5.80
